sensor_id;sensor_type;location;lat;lon;timestamp;pressure;altitude;pressure_sealevel;temperature;humidity
24746;BME280;12845;52.042;6.838;2022-08-19T00:00:11;68675.81;;;17.16;100.00
24746;BME280;12845;52.042;6.838;2022-08-19T00:05:07;68664.09;;;17.01;100.00
24746;BME280;12845;52.042;6.838;2022-08-19T00:07:32;68653.03;;;16.96;100.00
24746;BME280;12845;52.042;6.838;2022-08-19T00:09:58;68646.75;;;16.90;100.00
24746;BME280;12845;52.042;6.838;2022-08-19T00:12:23;68645.28;;;16.84;100.00
24746;BME280;12845;52.042;6.838;2022-08-19T00:17:14;68632.47;;;16.77;100.00
24746;BME280;12845;52.042;6.838;2022-08-19T00:19:39;68632.16;;;16.72;100.00
24746;BME280;12845;52.042;6.838;2022-08-19T00:26:58;68624.72;;;16.65;100.00
24746;BME280;12845;52.042;6.838;2022-08-19T00:29:24;68615.94;;;16.62;100.00
24746;BME280;12845;52.042;6.838;2022-08-19T00:31:50;68619.03;;;16.60;100.00
24746;BME280;12845;52.042;6.838;2022-08-19T00:34:18;68612.50;;;16.59;100.00
24746;BME280;12845;52.042;6.838;2022-08-19T00:36:45;68604.69;;;16.55;100.00
24746;BME280;12845;52.042;6.838;2022-08-19T00:39:11;68608.19;;;16.51;100.00
24746;BME280;12845;52.042;6.838;2022-08-19T00:41:37;68602.47;;;16.45;100.00
24746;BME280;12845;52.042;6.838;2022-08-19T00:44:13;68593.13;;;16.42;100.00
24746;BME280;12845;52.042;6.838;2022-08-19T00:46:42;68590.28;;;16.39;100.00
24746;BME280;12845;52.042;6.838;2022-08-19T00:49:38;68595.09;;;16.39;100.00
24746;BME280;12845;52.042;6.838;2022-08-19T00:52:14;68590.28;;;16.39;100.00
24746;BME280;12845;52.042;6.838;2022-08-19T00:59:36;68592.56;;;16.41;100.00
24746;BME280;12845;52.042;6.838;2022-08-19T01:04:29;68594.84;;;16.43;100.00
24746;BME280;12845;52.042;6.838;2022-08-19T01:06:55;68583.59;;;16.36;100.00
24746;BME280;12845;52.042;6.838;2022-08-19T01:09:21;68582.31;;;16.32;100.00
24746;BME280;12845;52.042;6.838;2022-08-19T01:11:47;68582.47;;;16.35;100.00
24746;BME280;12845;52.042;6.838;2022-08-19T01:14:13;68581.16;;;16.31;100.00
24746;BME280;12845;52.042;6.838;2022-08-19T01:16:39;68584.25;;;16.29;100.00
24746;BME280;12845;52.042;6.838;2022-08-19T01:24:16;68571.47;;;16.22;100.00
24746;BME280;12845;52.042;6.838;2022-08-19T01:26:43;68575.13;;;16.21;100.00
24746;BME280;12845;52.042;6.838;2022-08-19T01:31:35;68570.91;;;16.22;100.00
24746;BME280;12845;52.042;6.838;2022-08-19T01:34:06;68567.47;;;16.19;100.00
24746;BME280;12845;52.042;6.838;2022-08-19T01:36:34;68575.13;;;16.21;100.00
24746;BME280;12845;52.042;6.838;2022-08-19T01:39:01;68568.03;;;16.19;100.00
24746;BME280;12845;52.042;6.838;2022-08-19T01:41:27;68553.56;;;16.11;100.00
24746;BME280;12845;52.042;6.838;2022-08-19T01:43:53;68559.75;;;16.07;100.00
24746;BME280;12845;52.042;6.838;2022-08-19T01:46:19;68560.31;;;16.08;100.00
24746;BME280;12845;52.042;6.838;2022-08-19T01:48:45;68561.47;;;16.09;100.00
24746;BME280;12845;52.042;6.838;2022-08-19T01:51:12;68558.03;;;16.06;100.00
24746;BME280;12845;52.042;6.838;2022-08-19T01:53:38;68552.09;;;16.05;100.00
24746;BME280;12845;52.042;6.838;2022-08-19T01:56:04;68551.19;;;15.99;100.00
24746;BME280;12845;52.042;6.838;2022-08-19T01:58:40;68551.78;;;16.00;100.00
24746;BME280;12845;52.042;6.838;2022-08-19T02:01:07;68551.13;;;16.07;100.00
24746;BME280;12845;52.042;6.838;2022-08-19T02:10:55;68549.81;;;16.03;100.00
24746;BME280;12845;52.042;6.838;2022-08-19T02:13:21;68548.91;;;15.97;100.00
24746;BME280;12845;52.042;6.838;2022-08-19T02:15:46;68546.63;;;15.95;100.00
24746;BME280;12845;52.042;6.838;2022-08-19T02:18:12;68537.84;;;15.92;100.00
24746;BME280;12845;52.042;6.838;2022-08-19T02:20:38;68536.13;;;15.91;100.00
24746;BME280;12845;52.042;6.838;2022-08-19T02:23:05;68537.50;;;15.87;100.00
24746;BME280;12845;52.042;6.838;2022-08-19T02:25:30;68528.72;;;15.84;100.00
24746;BME280;12845;52.042;6.838;2022-08-19T02:27:56;68528.72;;;15.84;100.00
24746;BME280;12845;52.042;6.838;2022-08-19T02:30:22;68521.91;;;15.78;100.00
24746;BME280;12845;52.042;6.838;2022-08-19T02:32:47;68516.75;;;15.73;100.00
24746;BME280;12845;52.042;6.838;2022-08-19T02:35:13;68516.44;;;15.68;100.00
24746;BME280;12845;52.042;6.838;2022-08-19T02:37:41;68508.78;;;15.66;100.00
24746;BME280;12845;52.042;6.838;2022-08-19T02:40:24;68507.06;;;15.65;100.00
24746;BME280;12845;52.042;6.838;2022-08-19T02:45:15;68498.69;;;15.60;100.00
24746;BME280;12845;52.042;6.838;2022-08-19T02:47:41;68500.22;;;15.58;100.00
24746;BME280;12845;52.042;6.838;2022-08-19T02:50:07;68506.75;;;15.60;100.00
24746;BME280;12845;52.042;6.838;2022-08-19T02:52:34;68503.31;;;15.56;100.00
24746;BME280;12845;52.042;6.838;2022-08-19T02:54:59;68503.88;;;15.57;100.00
24746;BME280;12845;52.042;6.838;2022-08-19T02:57:25;68497.97;;;15.56;100.00
24746;BME280;12845;52.042;6.838;2022-08-19T02:59:51;68491.69;;;15.51;100.00
24746;BME280;12845;52.042;6.838;2022-08-19T03:04:42;68487.94;;;15.43;100.00
24746;BME280;12845;52.042;6.838;2022-08-19T03:09:33;68480.28;;;15.41;100.00
24746;BME280;12845;52.042;6.838;2022-08-19T03:19:17;68473.63;;;15.37;100.00
24746;BME280;12845;52.042;6.838;2022-08-19T03:24:10;68489.06;;;15.44;100.00
24746;BME280;12845;52.042;6.838;2022-08-19T03:26:43;68493.38;;;15.52;100.00
24746;BME280;12845;52.042;6.838;2022-08-19T03:29:08;68497.06;;;15.51;100.00
24746;BME280;12845;52.042;6.838;2022-08-19T03:31:36;68499.09;;;15.57;100.00
24746;BME280;12845;52.042;6.838;2022-08-19T03:41:35;68498.53;;;15.57;100.00
24746;BME280;12845;52.042;6.838;2022-08-19T03:46:29;68495.09;;;15.54;100.00
24746;BME280;12845;52.042;6.838;2022-08-19T03:53:54;68501.38;;;15.60;100.00
24746;BME280;12845;52.042;6.838;2022-08-19T03:56:20;68496.25;;;15.55;100.00
24746;BME280;12845;52.042;6.838;2022-08-19T04:06:26;68496.47;;;15.50;100.00
24746;BME280;12845;52.042;6.838;2022-08-19T04:08:53;68489.63;;;15.44;100.00
24746;BME280;12845;52.042;6.838;2022-08-19T04:11:22;68479.16;;;15.40;100.00
24746;BME280;12845;52.042;6.838;2022-08-19T04:13:49;68480.84;;;15.41;100.00
24746;BME280;12845;52.042;6.838;2022-08-19T04:16:17;68478.56;;;15.39;100.00
24746;BME280;12845;52.042;6.838;2022-08-19T04:18:42;68480.84;;;15.41;100.00
24746;BME280;12845;52.042;6.838;2022-08-19T04:23:34;68482.81;;;15.38;100.00
24746;BME280;12845;52.042;6.838;2022-08-19T04:26:02;68475.75;;;15.37;100.00
24746;BME280;12845;52.042;6.838;2022-08-19T04:28:27;68484.53;;;15.40;100.00
24746;BME280;12845;52.042;6.838;2022-08-19T04:30:54;68479.72;;;15.40;100.00
24746;BME280;12845;52.042;6.838;2022-08-19T04:40:45;68466.19;;;15.30;100.00
24746;BME280;12845;52.042;6.838;2022-08-19T04:43:31;68468.31;;;15.30;100.00
24746;BME280;12845;52.042;6.838;2022-08-19T04:48:23;68464.34;;;15.26;100.00
24746;BME280;12845;52.042;6.838;2022-08-19T04:50:58;68465.47;;;15.27;100.00
24746;BME280;12845;52.042;6.838;2022-08-19T04:55:50;68476.38;;;15.30;100.00
24746;BME280;12845;52.042;6.838;2022-08-19T04:58:16;68467.34;;;15.31;100.00
24746;BME280;12845;52.042;6.838;2022-08-19T05:00:42;68465.47;;;15.27;100.00
24746;BME280;12845;52.042;6.838;2022-08-19T05:03:08;68461.50;;;15.24;100.00
24746;BME280;12845;52.042;6.838;2022-08-19T05:05:38;68459.22;;;15.22;100.00
24746;BME280;12845;52.042;6.838;2022-08-19T05:08:04;68468.00;;;15.25;100.00
24746;BME280;12845;52.042;6.838;2022-08-19T05:10:30;68463.78;;;15.26;100.00
24746;BME280;12845;52.042;6.838;2022-08-19T05:17:47;68479.16;;;15.40;100.00
24746;BME280;12845;52.042;6.838;2022-08-19T05:23:16;68492.81;;;15.52;100.00
24746;BME280;12845;52.042;6.838;2022-08-19T05:25:42;68497.38;;;15.56;100.00
24746;BME280;12845;52.042;6.838;2022-08-19T05:32:59;68510.50;;;15.68;100.00
24746;BME280;12845;52.042;6.838;2022-08-19T05:37:50;68530.44;;;15.86;100.00
24746;BME280;12845;52.042;6.838;2022-08-19T05:40:15;68528.72;;;15.84;100.00
24746;BME280;12845;52.042;6.838;2022-08-19T05:42:40;68531.59;;;15.87;100.00
24746;BME280;12845;52.042;6.838;2022-08-19T05:45:06;68539.53;;;15.94;100.00
24746;BME280;12845;52.042;6.838;2022-08-19T05:47:32;68552.34;;;16.00;100.00
24746;BME280;12845;52.042;6.838;2022-08-19T05:49:58;68556.66;;;16.09;100.00
24746;BME280;12845;52.042;6.838;2022-08-19T05:54:49;68581.97;;;16.27;100.00
24746;BME280;12845;52.042;6.838;2022-08-19T06:02:07;68604.69;;;16.55;100.00
24746;BME280;12845;52.042;6.838;2022-08-19T06:04:33;68617.06;;;16.63;100.00
24746;BME280;12845;52.042;6.838;2022-08-19T06:06:59;68630.19;;;16.75;100.00
24746;BME280;12845;52.042;6.838;2022-08-19T06:09:24;68641.59;;;16.85;100.00
24746;BME280;12845;52.042;6.838;2022-08-19T06:11:53;68655.31;;;16.98;100.00
24746;BME280;12845;52.042;6.838;2022-08-19T06:14:23;68669.00;;;17.10;100.00
24746;BME280;12845;52.042;6.838;2022-08-19T06:16:49;68678.69;;;17.19;100.00
24746;BME280;12845;52.042;6.838;2022-08-19T06:19:18;68680.53;;;17.23;100.00
24746;BME280;12845;52.042;6.838;2022-08-19T06:21:46;68682.66;;;17.22;100.00
24746;BME280;12845;52.042;6.838;2022-08-19T06:24:15;68683.81;;;17.23;100.00
24746;BME280;12845;52.042;6.838;2022-08-19T06:26:43;68676.41;;;17.17;100.00
24746;BME280;12845;52.042;6.838;2022-08-19T06:34:03;68702.22;;;17.42;100.00
24746;BME280;12845;52.042;6.838;2022-08-19T06:36:34;68715.75;;;17.52;100.00
24746;BME280;12845;52.042;6.838;2022-08-19T06:44:03;68737.44;;;17.71;100.00
24746;BME280;12845;52.042;6.838;2022-08-19T06:51:21;68765.03;;;17.98;100.00
24746;BME280;12845;52.042;6.838;2022-08-19T06:53:48;68767.72;;;17.98;100.00
24746;BME280;12845;52.042;6.838;2022-08-19T06:56:15;68770.31;;;18.06;100.00
24746;BME280;12845;52.042;6.838;2022-08-19T06:58:41;68779.28;;;18.11;100.00
24746;BME280;12845;52.042;6.838;2022-08-19T07:01:07;68795.66;;;18.23;100.00
24746;BME280;12845;52.042;6.838;2022-08-19T07:03:35;68809.38;;;18.36;100.00
24746;BME280;12845;52.042;6.838;2022-08-19T07:06:10;68814.50;;;18.40;100.00
24746;BME280;12845;52.042;6.838;2022-08-19T07:08:37;68829.94;;;18.54;100.00
24746;BME280;12845;52.042;6.838;2022-08-19T07:11:07;68831.53;;;18.63;100.00
24746;BME280;12845;52.042;6.838;2022-08-19T07:13:33;68852.78;;;18.75;100.00
24746;BME280;12845;52.042;6.838;2022-08-19T07:16:06;68860.34;;;18.84;100.00
24746;BME280;12845;52.042;6.838;2022-08-19T07:18:33;68869.34;;;18.89;100.00
24746;BME280;12845;52.042;6.838;2022-08-19T07:21:06;68879.63;;;18.99;100.00
24746;BME280;12845;52.042;6.838;2022-08-19T07:23:33;68887.78;;;19.08;100.00
24746;BME280;12845;52.042;6.838;2022-08-19T07:26:05;68891.94;;;19.14;100.00
24746;BME280;12845;52.042;6.838;2022-08-19T07:28:30;68913.31;;;19.29;99.22
24746;BME280;12845;52.042;6.838;2022-08-19T07:30:56;68927.59;;;19.42;99.45
24746;BME280;12845;52.042;6.838;2022-08-19T07:35:46;68940.75;;;19.53;98.88
24746;BME280;12845;52.042;6.838;2022-08-19T07:40:37;68947.19;;;19.61;98.22
24746;BME280;12845;52.042;6.838;2022-08-19T07:45:28;68970.50;;;19.80;97.95
24746;BME280;12845;52.042;6.838;2022-08-19T07:47:54;68979.63;;;19.88;97.67
24746;BME280;12845;52.042;6.838;2022-08-19T07:50:20;68987.22;;;19.97;97.78
24746;BME280;12845;52.042;6.838;2022-08-19T07:52:46;69012.94;;;20.20;97.02
24746;BME280;12845;52.042;6.838;2022-08-19T07:55:12;69031.66;;;20.35;96.38
24746;BME280;12845;52.042;6.838;2022-08-19T07:57:37;69038.50;;;20.41;95.28
24746;BME280;12845;52.042;6.838;2022-08-19T08:00:04;69049.94;;;20.51;95.04
24746;BME280;12845;52.042;6.838;2022-08-19T08:02:30;69068.25;;;20.67;93.98
24746;BME280;12845;52.042;6.838;2022-08-19T08:04:56;69082.56;;;20.80;93.13
24746;BME280;12845;52.042;6.838;2022-08-19T08:07:40;69082.84;;;20.85;92.07
24746;BME280;12845;52.042;6.838;2022-08-19T08:10:24;69106.16;;;21.04;92.83
24746;BME280;12845;52.042;6.838;2022-08-19T08:12:50;69128.31;;;21.21;91.79
24746;BME280;12845;52.042;6.838;2022-08-19T08:15:16;69132.47;;;21.27;91.46
24746;BME280;12845;52.042;6.838;2022-08-19T08:17:42;69146.06;;;21.37;91.05
24746;BME280;12845;52.042;6.838;2022-08-19T08:22:33;69172.53;;;21.63;89.48
24746;BME280;12845;52.042;6.838;2022-08-19T08:25:20;69168.53;;;21.59;88.88
24746;BME280;12845;52.042;6.838;2022-08-19T08:27:46;69171.81;;;21.60;88.43
24746;BME280;12845;52.042;6.838;2022-08-19T08:30:15;69180.00;;;21.70;89.34
24746;BME280;12845;52.042;6.838;2022-08-19T08:32:41;69187.41;;;21.76;88.67
24746;BME280;12845;52.042;6.838;2022-08-19T08:35:10;69191.56;;;21.82;88.02
24746;BME280;12845;52.042;6.838;2022-08-19T08:37:36;69193.16;;;21.81;88.50
24746;BME280;12845;52.042;6.838;2022-08-19T08:40:09;69184.41;;;21.71;89.25
24746;BME280;12845;52.042;6.838;2022-08-19T08:42:47;69195.84;;;21.81;89.08
24746;BME280;12845;52.042;6.838;2022-08-19T08:45:17;69209.59;;;21.94;88.06
24746;BME280;12845;52.042;6.838;2022-08-19T08:47:47;69213.59;;;21.97;87.94
24746;BME280;12845;52.042;6.838;2022-08-19T08:52:49;69218.91;;;22.04;87.05
24746;BME280;12845;52.042;6.838;2022-08-19T08:55:22;69209.31;;;21.98;87.07
24746;BME280;12845;52.042;6.838;2022-08-19T09:00:40;69217.19;;;22.03;85.12
24746;BME280;12845;52.042;6.838;2022-08-19T09:03:21;69231.66;;;22.18;84.85
24746;BME280;12845;52.042;6.838;2022-08-19T09:06:04;69242.97;;;22.26;82.82
24746;BME280;12845;52.042;6.838;2022-08-19T09:11:15;69261.13;;;22.40;83.58
24746;BME280;12845;52.042;6.838;2022-08-19T09:16:32;69280.34;;;22.62;79.64
24746;BME280;12845;52.042;6.838;2022-08-19T09:19:03;69282.03;;;22.63;79.32
24746;BME280;12845;52.042;6.838;2022-08-19T09:21:29;69279.16;;;22.61;76.63
24746;BME280;12845;52.042;6.838;2022-08-19T09:23:54;69306.94;;;22.81;75.86
24746;BME280;12845;52.042;6.838;2022-08-19T09:26:22;69299.22;;;22.79;74.92
24746;BME280;12845;52.042;6.838;2022-08-19T09:28:49;69288.91;;;22.69;75.97
24746;BME280;12845;52.042;6.838;2022-08-19T09:31:17;69307.09;;;22.83;74.67
24746;BME280;12845;52.042;6.838;2022-08-19T09:33:44;69316.41;;;22.94;74.10
24746;BME280;12845;52.042;6.838;2022-08-19T09:36:12;69323.72;;;22.98;71.89
24746;BME280;12845;52.042;6.838;2022-08-19T09:38:39;69321.56;;;22.98;71.58
24746;BME280;12845;52.042;6.838;2022-08-19T09:41:07;69316.66;;;22.89;71.85
24746;BME280;12845;52.042;6.838;2022-08-19T09:43:33;69315.69;;;22.91;73.35
24746;BME280;12845;52.042;6.838;2022-08-19T09:46:03;69333.31;;;23.04;73.44
24746;BME280;12845;52.042;6.838;2022-08-19T09:48:32;69329.88;;;23.01;72.71
24746;BME280;12845;52.042;6.838;2022-08-19T09:51:24;69348.91;;;23.20;72.85
24746;BME280;12845;52.042;6.838;2022-08-19T09:53:51;69352.78;;;23.22;72.55
24746;BME280;12845;52.042;6.838;2022-08-19T09:56:19;69342.06;;;23.14;72.65
24746;BME280;12845;52.042;6.838;2022-08-19T09:58:46;69347.34;;;23.22;73.80
24746;BME280;12845;52.042;6.838;2022-08-19T10:01:20;69374.13;;;23.43;74.11
24746;BME280;12845;52.042;6.838;2022-08-19T10:03:50;69385.72;;;23.56;73.49
24746;BME280;12845;52.042;6.838;2022-08-19T10:06:18;69409.69;;;23.75;72.59
24746;BME280;12845;52.042;6.838;2022-08-19T10:08:44;69400.63;;;23.69;71.56
24746;BME280;12845;52.042;6.838;2022-08-19T10:11:10;69405.81;;;23.74;72.08
24746;BME280;12845;52.042;6.838;2022-08-19T10:13:35;69425.31;;;23.91;72.23
24746;BME280;12845;52.042;6.838;2022-08-19T10:16:14;69448.09;;;24.09;69.97
24746;BME280;12845;52.042;6.838;2022-08-19T10:18:41;69442.66;;;24.09;69.63
24746;BME280;12845;52.042;6.838;2022-08-19T10:21:13;69445.94;;;24.09;69.57
24746;BME280;12845;52.042;6.838;2022-08-19T10:23:42;69453.53;;;24.19;68.19
24746;BME280;12845;52.042;6.838;2022-08-19T10:26:18;69455.53;;;24.16;68.83
24746;BME280;12845;52.042;6.838;2022-08-19T10:28:44;69466.84;;;24.23;68.02
24746;BME280;12845;52.042;6.838;2022-08-19T10:31:12;69461.97;;;24.24;67.08
24746;BME280;12845;52.042;6.838;2022-08-19T10:33:39;69458.97;;;24.19;67.57
24746;BME280;12845;52.042;6.838;2022-08-19T10:36:13;69481.91;;;24.39;66.99
24746;BME280;12845;52.042;6.838;2022-08-19T10:38:40;69478.03;;;24.38;67.13
24746;BME280;12845;52.042;6.838;2022-08-19T10:41:30;69498.41;;;24.51;66.26
24746;BME280;12845;52.042;6.838;2022-08-19T10:43:58;69503.28;;;24.61;63.60
24746;BME280;12845;52.042;6.838;2022-08-19T10:46:26;69516.06;;;24.74;64.13
24746;BME280;12845;52.042;6.838;2022-08-19T10:48:53;69538.69;;;24.90;63.90
24746;BME280;12845;52.042;6.838;2022-08-19T10:51:19;69552.75;;;25.07;61.93
24746;BME280;12845;52.042;6.838;2022-08-19T10:54:03;69577.28;;;25.27;61.29
24746;BME280;12845;52.042;6.838;2022-08-19T10:56:29;69589.63;;;25.33;60.15
24746;BME280;12845;52.042;6.838;2022-08-19T10:59:14;69589.91;;;25.38;58.43
24746;BME280;12845;52.042;6.838;2022-08-19T11:01:42;69588.19;;;25.36;59.42
24746;BME280;12845;52.042;6.838;2022-08-19T11:04:07;69595.50;;;25.40;60.23
24746;BME280;12845;52.042;6.838;2022-08-19T11:06:37;69589.31;;;25.37;59.06
24746;BME280;12845;52.042;6.838;2022-08-19T11:09:04;69586.75;;;25.30;57.99
24746;BME280;12845;52.042;6.838;2022-08-19T11:11:29;69592.06;;;25.37;57.04
24746;BME280;12845;52.042;6.838;2022-08-19T11:13:55;69592.06;;;25.37;57.60
24746;BME280;12845;52.042;6.838;2022-08-19T11:16:23;69599.66;;;25.47;57.76
24746;BME280;12845;52.042;6.838;2022-08-19T11:18:51;69623.47;;;25.63;57.03
24746;BME280;12845;52.042;6.838;2022-08-19T11:21:21;69622.03;;;25.66;55.29
24746;BME280;12845;52.042;6.838;2022-08-19T11:23:49;69643.28;;;25.85;56.19
24746;BME280;12845;52.042;6.838;2022-08-19T11:26:15;69644.56;;;25.89;54.81
24746;BME280;12845;52.042;6.838;2022-08-19T11:28:41;69642.16;;;25.84;53.00
24746;BME280;12845;52.042;6.838;2022-08-19T11:31:12;69638.13;;;25.81;54.07
24746;BME280;12845;52.042;6.838;2022-08-19T11:33:38;69644.13;;;25.81;54.44
24746;BME280;12845;52.042;6.838;2022-08-19T11:36:03;69627.78;;;25.72;55.04
24746;BME280;12845;52.042;6.838;2022-08-19T11:38:29;69630.22;;;25.76;55.43
24746;BME280;12845;52.042;6.838;2022-08-19T11:41:01;69620.59;;;25.60;55.17
24746;BME280;12845;52.042;6.838;2022-08-19T11:43:28;69626.47;;;25.68;55.75
24746;BME280;12845;52.042;6.838;2022-08-19T11:45:57;69627.19;;;25.71;52.90
24746;BME280;12845;52.042;6.838;2022-08-19T11:48:24;69626.47;;;25.68;54.61
24746;BME280;12845;52.042;6.838;2022-08-19T11:50:51;69622.31;;;25.62;54.80
24746;BME280;12845;52.042;6.838;2022-08-19T11:53:18;69608.13;;;25.52;54.20
24746;BME280;12845;52.042;6.838;2022-08-19T11:55:46;69616.31;;;25.61;55.00
24746;BME280;12845;52.042;6.838;2022-08-19T11:58:13;69617.59;;;25.65;53.97
24746;BME280;12845;52.042;6.838;2022-08-19T12:00:39;69637.97;;;25.78;50.42
24746;BME280;12845;52.042;6.838;2022-08-19T12:03:05;69641.56;;;25.84;51.65
24746;BME280;12845;52.042;6.838;2022-08-19T12:05:30;69638.13;;;25.81;52.42
24746;BME280;12845;52.042;6.838;2022-08-19T12:07:56;69647.75;;;25.87;52.46
24746;BME280;12845;52.042;6.838;2022-08-19T12:10:22;69653.47;;;25.92;51.94
24746;BME280;12845;52.042;6.838;2022-08-19T12:12:48;69669.53;;;26.06;49.56
24746;BME280;12845;52.042;6.838;2022-08-19T12:15:14;69660.34;;;26.08;50.42
24746;BME280;12845;52.042;6.838;2022-08-19T12:17:40;69683.03;;;26.23;49.11
24746;BME280;12845;52.042;6.838;2022-08-19T12:20:08;69697.25;;;26.33;49.66
24746;BME280;12845;52.042;6.838;2022-08-19T12:22:35;69715.66;;;26.50;49.42
24746;BME280;12845;52.042;6.838;2022-08-19T12:25:00;69712.75;;;26.47;49.61
24746;BME280;12845;52.042;6.838;2022-08-19T12:27:26;69725.97;;;26.59;49.24
24746;BME280;12845;52.042;6.838;2022-08-19T12:29:51;69724.38;;;26.60;48.55
24746;BME280;12845;52.042;6.838;2022-08-19T12:32:17;69763.84;;;26.93;49.20
24746;BME280;12845;52.042;6.838;2022-08-19T12:34:42;69747.91;;;26.81;49.50
24746;BME280;12845;52.042;6.838;2022-08-19T12:37:13;69782.94;;;27.12;48.86
24746;BME280;12845;52.042;6.838;2022-08-19T12:39:41;69776.06;;;27.06;48.19
24746;BME280;12845;52.042;6.838;2022-08-19T12:42:10;69784.13;;;27.13;47.80
24746;BME280;12845;52.042;6.838;2022-08-19T12:44:38;69743.19;;;26.74;47.45
24746;BME280;12845;52.042;6.838;2022-08-19T12:47:04;69732.88;;;26.65;49.29
24746;BME280;12845;52.042;6.838;2022-08-19T12:49:31;69731.69;;;26.64;48.82
24746;BME280;12845;52.042;6.838;2022-08-19T12:52:01;69757.25;;;26.92;48.69
24746;BME280;12845;52.042;6.838;2022-08-19T12:54:28;69756.13;;;26.81;48.93
24746;BME280;12845;52.042;6.838;2022-08-19T12:56:55;69771.19;;;26.97;48.70
24746;BME280;12845;52.042;6.838;2022-08-19T12:59:20;69779.94;;;27.07;47.99
24746;BME280;12845;52.042;6.838;2022-08-19T13:01:46;69753.38;;;26.81;48.14
24746;BME280;12845;52.042;6.838;2022-08-19T13:04:11;69775.78;;;27.01;49.40
24746;BME280;12845;52.042;6.838;2022-08-19T13:06:37;69792.59;;;27.18;47.32
24746;BME280;12845;52.042;6.838;2022-08-19T13:09:03;69791.03;;;27.19;48.83
24746;BME280;12845;52.042;6.838;2022-08-19T13:11:29;69800.34;;;27.30;47.95
24746;BME280;12845;52.042;6.838;2022-08-19T13:13:57;69832.81;;;27.54;48.93
24746;BME280;12845;52.042;6.838;2022-08-19T13:16:23;69818.44;;;27.41;48.25
24746;BME280;12845;52.042;6.838;2022-08-19T13:18:50;69850.63;;;27.70;48.15
24746;BME280;12845;52.042;6.838;2022-08-19T13:21:19;69799.63;;;27.27;48.07
24746;BME280;12845;52.042;6.838;2022-08-19T13:23:45;69804.81;;;27.32;49.14
24746;BME280;12845;52.042;6.838;2022-08-19T13:26:13;69800.22;;;27.28;51.22
24746;BME280;12845;52.042;6.838;2022-08-19T13:28:40;69849.63;;;27.72;49.87
24746;BME280;12845;52.042;6.838;2022-08-19T13:31:26;69818.00;;;27.43;50.26
24746;BME280;12845;52.042;6.838;2022-08-19T13:34:11;69808.13;;;27.32;51.22
24746;BME280;12845;52.042;6.838;2022-08-19T13:36:37;69838.13;;;27.61;50.50
24746;BME280;12845;52.042;6.838;2022-08-19T13:39:05;69812.72;;;27.36;51.09
24746;BME280;12845;52.042;6.838;2022-08-19T13:41:30;69836.25;;;27.57;50.48
24746;BME280;12845;52.042;6.838;2022-08-19T13:43:56;69907.53;;;28.21;50.36
24746;BME280;12845;52.042;6.838;2022-08-19T13:46:22;69904.38;;;28.23;49.31
24746;BME280;12845;52.042;6.838;2022-08-19T13:48:47;69812.25;;;27.38;50.54
24746;BME280;12845;52.042;6.838;2022-08-19T13:51:15;69847.19;;;27.67;51.25
24746;BME280;12845;52.042;6.838;2022-08-19T13:53:42;69855.94;;;27.77;50.41
24746;BME280;12845;52.042;6.838;2022-08-19T13:56:10;69860.13;;;27.83;48.61
24746;BME280;12845;52.042;6.838;2022-08-19T13:58:37;69859.53;;;27.83;48.55
24746;BME280;12845;52.042;6.838;2022-08-19T14:01:03;69859.69;;;27.76;49.90
24746;BME280;12845;52.042;6.838;2022-08-19T14:03:30;69881.69;;;27.98;48.33
24746;BME280;12845;52.042;6.838;2022-08-19T14:05:55;69900.19;;;28.17;47.78
24746;BME280;12845;52.042;6.838;2022-08-19T14:08:22;69889.84;;;28.07;46.95
24746;BME280;12845;52.042;6.838;2022-08-19T14:10:47;69886.28;;;28.02;46.57
24746;BME280;12845;52.042;6.838;2022-08-19T14:13:16;69867.44;;;27.87;46.72
24746;BME280;12845;52.042;6.838;2022-08-19T14:15:42;69892.72;;;28.10;45.43
24746;BME280;12845;52.042;6.838;2022-08-19T14:18:08;69925.94;;;28.37;44.68
24746;BME280;12845;52.042;6.838;2022-08-19T14:20:34;69914.31;;;28.24;44.89
24746;BME280;12845;52.042;6.838;2022-08-19T14:23:00;69917.44;;;28.32;45.75
24746;BME280;12845;52.042;6.838;2022-08-19T14:25:28;69900.19;;;28.17;43.88
24746;BME280;12845;52.042;6.838;2022-08-19T14:27:55;69929.97;;;28.41;44.97
24746;BME280;12845;52.042;6.838;2022-08-19T14:30:28;69976.69;;;28.85;45.43
24746;BME280;12845;52.042;6.838;2022-08-19T14:32:55;69941.91;;;28.49;43.40
24746;BME280;12845;52.042;6.838;2022-08-19T14:35:21;69962.75;;;28.70;43.77
24746;BME280;12845;52.042;6.838;2022-08-19T14:37:48;69960.44;;;28.68;43.24
24746;BME280;12845;52.042;6.838;2022-08-19T14:40:17;69985.19;;;28.90;43.56
24746;BME280;12845;52.042;6.838;2022-08-19T14:42:44;69988.50;;;28.90;45.47
24746;BME280;12845;52.042;6.838;2022-08-19T14:45:10;69981.16;;;28.86;43.48
24746;BME280;12845;52.042;6.838;2022-08-19T14:47:36;69999.69;;;29.05;43.30
24746;BME280;12845;52.042;6.838;2022-08-19T14:50:03;70002.44;;;29.05;41.10
24746;BME280;12845;52.042;6.838;2022-08-19T14:52:28;69999.56;;;29.02;41.05
24746;BME280;12845;52.042;6.838;2022-08-19T14:54:54;70005.88;;;29.08;41.97
24746;BME280;12845;52.042;6.838;2022-08-19T14:57:19;70032.94;;;29.32;40.59
24746;BME280;12845;52.042;6.838;2022-08-19T14:59:45;70011.66;;;29.13;41.27
24746;BME280;12845;52.042;6.838;2022-08-19T15:02:11;70020.97;;;29.24;43.21
24746;BME280;12845;52.042;6.838;2022-08-19T15:04:37;69993.34;;;28.99;41.95
24746;BME280;12845;52.042;6.838;2022-08-19T15:07:02;69994.66;;;29.03;41.90
24746;BME280;12845;52.042;6.838;2022-08-19T15:09:33;69980.00;;;28.85;41.54
24746;BME280;12845;52.042;6.838;2022-08-19T15:11:59;69995.66;;;29.01;42.92
24746;BME280;12845;52.042;6.838;2022-08-19T15:14:26;69957.84;;;28.70;43.53
24746;BME280;12845;52.042;6.838;2022-08-19T15:16:51;70031.63;;;29.29;43.33
24746;BME280;12845;52.042;6.838;2022-08-19T15:19:17;69998.41;;;29.01;43.35
24746;BME280;12845;52.042;6.838;2022-08-19T15:21:43;70014.78;;;29.21;43.64